Time;durP1;ratioP1;P1;durP2;ratioP2;P2;SDS_P1;SDS_P2;PMS_P1;PMS_P2;Temp;Humidity;BMP_temperature;BMP_pressure;BME280_temperature;BME280_humidity;BME280_pressure;Samples;Min_cycle;Max_cycle;Signal;HPM_P1;HPM_P2
2022/02/05 00:02:58;;;;;;;87.88;57.88;;;;;;;;;;4972265;28;20073;-79
2022/02/05 00:05:33;;;;;;;53.47;47.95;;;;;;;;;;4979825;28;20019;-81
2022/02/05 00:08:28;;;;;;;52.58;47.38;;;;;;;;;;4976246;28;20057;-80
2022/02/05 00:43:06;;;;;;;51.13;46.33;;;;;;;;;;4966944;28;20038;-78
2022/02/05 00:45:35;;;;;;;56.30;50.33;;;;;;;;;;4973359;28;20488;-78
2022/02/05 00:48:02;;;;;;;51.67;47.05;;;;;;;;;;4979075;28;20026;-78
2022/02/05 00:50:29;;;;;;;51.63;46.90;;;;;;;;;;4974290;28;20030;-77
2022/02/05 00:53:05;;;;;;;54.20;48.75;;;;;;;;;;4976454;28;20621;-77
2022/02/05 00:55:34;;;;;;;52.65;47.60;;;;;;;;;;4977633;28;20370;-78
2022/02/05 00:58:03;;;;;;;55.78;49.83;;;;;;;;;;4977813;28;20019;-77
2022/02/05 01:00:32;;;;;;;52.33;47.30;;;;;;;;;;4973343;28;20130;-80
2022/02/05 01:02:58;;;;;;;54.40;48.67;;;;;;;;;;4977934;28;20018;-77
2022/02/05 01:05:23;;;;;;;50.97;46.47;;;;;;;;;;4976218;28;20040;-80
2022/02/05 01:07:48;;;;;;;53.93;48.53;;;;;;;;;;4976832;28;20015;-78
2022/02/05 01:10:14;;;;;;;54.17;48.73;;;;;;;;;;4972959;28;20019;-78
2022/02/05 01:12:43;;;;;;;55.57;49.43;;;;;;;;;;4976084;28;20082;-77
2022/02/05 01:15:09;;;;;;;56.47;49.88;;;;;;;;;;4975800;28;20101;-80
2022/02/05 01:17:41;;;;;;;52.95;47.80;;;;;;;;;;4976707;28;20015;-78
2022/02/05 01:20:35;;;;;;;52.63;47.60;;;;;;;;;;4973164;28;20050;-79
2022/02/05 01:22:58;;;;;;;53.75;47.97;;;;;;;;;;4978030;28;20535;-78
2022/02/05 01:25:28;;;;;;;51.90;47.00;;;;;;;;;;4976851;28;20023;-79
2022/02/05 01:27:59;;;;;;;52.58;47.45;;;;;;;;;;4974292;28;20039;-78
2022/02/05 01:30:29;;;;;;;52.35;47.22;;;;;;;;;;4973588;28;20018;-78
2022/02/05 01:49:15;;;;;;;51.67;46.75;;;;;;;;;;4973868;28;20042;-77
2022/02/05 01:52:03;;;;;;;51.75;46.97;;;;;;;;;;4976766;28;20025;-80
2022/02/05 01:54:37;;;;;;;52.92;47.92;;;;;;;;;;4976518;28;20023;-79
2022/02/05 01:57:09;;;;;;;52.53;47.58;;;;;;;;;;4976538;28;20034;-78
2022/02/05 01:59:54;;;;;;;52.75;47.38;;;;;;;;;;4967293;28;20026;-78
2022/02/05 02:05:09;;;;;;;53.03;47.42;;;;;;;;;;4971255;28;20029;-77
2022/02/05 02:13:48;;;;;;;53.78;48.30;;;;;;;;;;4968524;28;20491;-78
2022/02/05 02:15:52;;;;;;;52.05;47.00;;;;;;;;;;4972954;28;20038;-80
2022/02/05 02:18:36;;;;;;;53.65;48.28;;;;;;;;;;4976587;28;20033;-78
2022/02/05 02:22:08;;;;;;;51.40;46.78;;;;;;;;;;4991702;28;20023;-79
2022/02/05 02:24:10;;;;;;;52.65;47.53;;;;;;;;;;4964740;28;20039;-79
2022/02/05 02:29:15;;;;;;;53.45;48.22;;;;;;;;;;4970821;28;20027;-77
2022/02/05 02:31:44;;;;;;;52.97;47.95;;;;;;;;;;4974350;28;20042;-78
2022/02/05 02:34:14;;;;;;;52.22;47.40;;;;;;;;;;4973502;28;20037;-77
2022/02/05 02:39:15;;;;;;;53.63;48.08;;;;;;;;;;4973044;28;20034;-78
2022/02/05 02:41:47;;;;;;;52.42;47.47;;;;;;;;;;4975108;28;20026;-78
2022/02/05 02:44:12;;;;;;;52.35;47.45;;;;;;;;;;4967074;28;20546;-78
2022/02/05 02:46:38;;;;;;;51.03;46.47;;;;;;;;;;4976613;28;20117;-77
2022/02/05 02:49:05;;;;;;;53.60;47.90;;;;;;;;;;4974060;28;20019;-79
2022/02/05 02:57:15;;;;;;;50.83;46.50;;;;;;;;;;4993550;28;19921;-81
2022/02/05 03:02:35;;;;;;;53.47;48.10;;;;;;;;;;4973333;28;20111;-79
2022/02/05 03:05:00;;;;;;;52.13;47.33;;;;;;;;;;4984312;28;20025;-79
2022/02/05 03:07:26;;;;;;;52.03;47.08;;;;;;;;;;4994532;28;20019;-80
2022/02/05 03:09:52;;;;;;;51.75;47.10;;;;;;;;;;4986587;28;20110;-81
2022/02/05 03:12:17;;;;;;;53.43;48.37;;;;;;;;;;4980888;28;20054;-81
2022/02/05 03:14:43;;;;;;;52.73;47.43;;;;;;;;;;4978328;28;20029;-80
2022/02/05 03:17:16;;;;;;;51.60;46.87;;;;;;;;;;4978001;28;20025;-79
2022/02/05 03:19:42;;;;;;;50.90;46.03;;;;;;;;;;4984902;28;20045;-81
2022/02/05 03:22:08;;;;;;;50.00;45.70;;;;;;;;;;4983416;28;20026;-81
2022/02/05 03:24:33;;;;;;;53.13;47.77;;;;;;;;;;4988654;28;20034;-80
2022/02/05 03:26:58;;;;;;;50.30;45.90;;;;;;;;;;4983462;28;20082;-79
2022/02/05 03:29:23;;;;;;;51.53;46.87;;;;;;;;;;4980248;28;20019;-82
2022/02/05 03:31:49;;;;;;;49.80;45.60;;;;;;;;;;4978377;28;20482;-79
2022/02/05 03:34:14;;;;;;;51.63;46.63;;;;;;;;;;4977211;28;20046;-80
2022/02/05 03:36:40;;;;;;;49.40;45.30;;;;;;;;;;4965847;28;20031;-79
2022/02/05 03:39:06;;;;;;;51.25;46.65;;;;;;;;;;4975952;28;20027;-81
2022/02/05 03:41:31;;;;;;;51.20;46.57;;;;;;;;;;4976731;28;20077;-82
2022/02/05 03:43:56;;;;;;;50.23;45.67;;;;;;;;;;4980875;28;20047;-81
2022/02/05 03:46:22;;;;;;;49.67;45.33;;;;;;;;;;4973712;28;20136;-80
2022/02/05 03:48:47;;;;;;;50.20;45.83;;;;;;;;;;4979052;28;20034;-81
2022/02/05 03:51:12;;;;;;;49.58;45.42;;;;;;;;;;4980019;28;20554;-81
2022/02/05 03:53:37;;;;;;;49.93;45.70;;;;;;;;;;4978985;28;20765;-82
2022/02/05 03:56:03;;;;;;;49.23;45.20;;;;;;;;;;4972424;28;20023;-80
2022/02/05 03:58:28;;;;;;;49.47;45.30;;;;;;;;;;4974911;28;20038;-80
2022/02/05 04:00:53;;;;;;;49.13;44.97;;;;;;;;;;4976339;28;20440;-79
2022/02/05 04:03:18;;;;;;;50.10;45.73;;;;;;;;;;4980466;28;20015;-81
2022/02/05 04:05:43;;;;;;;49.53;45.40;;;;;;;;;;4977452;28;20041;-77
2022/02/05 04:08:10;;;;;;;48.87;44.87;;;;;;;;;;4972113;28;20015;-80
2022/02/05 04:10:44;;;;;;;53.00;47.75;;;;;;;;;;4989139;28;20019;-81
2022/02/05 04:16:00;;;;;;;;;;;;;;;;;;4984240;28;20037;-81
2022/02/05 04:18:25;;;;;;;;;;;;;;;;;;4973184;28;19917;-82
2022/02/05 04:20:50;;;;;;;47.80;44.10;;;;;;;;;;4997730;28;19906;-81
2022/02/05 04:23:20;;;;;;;48.77;44.77;;;;;;;;;;4979585;28;20030;-79
2022/02/05 04:25:46;;;;;;;49.35;45.25;;;;;;;;;;4975148;28;20046;-82
2022/02/05 04:28:11;;;;;;;49.88;45.58;;;;;;;;;;4971790;28;20026;-80
2022/02/05 04:30:36;;;;;;;49.47;45.30;;;;;;;;;;4979142;28;20442;-82
2022/02/05 04:33:01;;;;;;;49.23;45.23;;;;;;;;;;4979911;28;20027;-81
2022/02/05 04:35:27;;;;;;;52.20;47.10;;;;;;;;;;4976091;28;20089;-81
2022/02/05 04:37:57;;;;;;;48.47;44.63;;;;;;;;;;4976986;28;20015;-79
2022/02/05 04:40:34;;;;;;;51.22;46.58;;;;;;;;;;5001046;28;20031;-80
2022/02/05 04:45:54;;;;;;;52.13;47.08;;;;;;;;;;4979123;28;20038;-80
2022/02/05 04:54:05;;;;;;;50.03;45.30;;;;;;;;;;4982578;28;20544;-80
2022/02/05 04:59:31;;;;;;;49.42;45.03;;;;;;;;;;4975274;28;20024;-81
2022/02/05 05:05:22;;;;;;;51.85;46.83;;;;;;;;;;4982591;28;20085;-80
2022/02/05 05:07:52;;;;;;;50.83;46.13;;;;;;;;;;4990173;28;20054;-79
2022/02/05 05:12:56;;;;;;;54.83;48.90;;;;;;;;;;4988236;28;20007;-78
2022/02/05 05:20:34;;;;;;;48.58;44.70;;;;;;;;;;4995770;28;20092;-78
2022/02/05 05:22:59;;;;;;;52.50;46.80;;;;;;;;;;4996008;28;20003;-78
2022/02/05 05:25:24;;;;;;;48.93;44.83;;;;;;;;;;4990959;28;20035;-80
2022/02/05 05:27:49;;;;;;;48.85;44.95;;;;;;;;;;5004449;28;20535;-79
2022/02/05 05:30:15;;;;;;;50.30;45.70;;;;;;;;;;4992589;28;20070;-77
2022/02/05 05:32:40;;;;;;;51.33;46.33;;;;;;;;;;4998591;28;20014;-79
2022/02/05 05:35:06;;;;;;;52.20;46.80;;;;;;;;;;4989730;28;20015;-80
2022/02/05 05:37:31;;;;;;;49.60;45.07;;;;;;;;;;4988341;28;20053;-79
2022/02/05 05:39:56;;;;;;;49.20;45.03;;;;;;;;;;4986449;28;20099;-79
2022/02/05 05:42:34;;;;;;;48.87;44.70;;;;;;;;;;4984899;28;20014;-79
2022/02/05 05:53:12;;;;;;;50.33;45.67;;;;;;;;;;4943108;29;20126;-81
2022/02/05 05:55:45;;;;;;;49.78;45.03;;;;;;;;;;4949550;28;20098;-81
2022/02/05 05:58:10;;;;;;;49.95;45.65;;;;;;;;;;4984795;28;20019;-79
2022/02/05 06:00:37;;;;;;;49.93;45.13;;;;;;;;;;4989936;28;20045;-79
2022/02/05 06:03:02;;;;;;;;;;;;;;;;;;4990435;28;20034;-79
2022/02/05 06:05:27;;;;;;;48.60;44.50;;;;;;;;;;4987420;28;19999;-80
2022/02/05 06:07:52;;;;;;;49.90;45.08;;;;;;;;;;4978429;28;20026;-80
2022/02/05 06:10:18;;;;;;;49.75;45.60;;;;;;;;;;4991575;28;20038;-78
2022/02/05 06:12:43;;;;;;;50.97;46.10;;;;;;;;;;4980455;28;20280;-79
2022/02/05 06:15:09;;;;;;;49.63;45.37;;;;;;;;;;4981654;28;20018;-78
2022/02/05 06:17:35;;;;;;;49.67;45.58;;;;;;;;;;4993007;28;20023;-80
2022/02/05 06:20:00;;;;;;;49.17;44.95;;;;;;;;;;4984463;28;20037;-81
2022/02/05 06:22:25;;;;;;;50.13;45.37;;;;;;;;;;4985747;28;20059;-81
2022/02/05 06:24:50;;;;;;;50.97;46.23;;;;;;;;;;4985287;28;20030;-80
2022/02/05 06:27:16;;;;;;;49.13;45.07;;;;;;;;;;4986762;28;20015;-79
2022/02/05 06:29:41;;;;;;;48.87;44.80;;;;;;;;;;5003663;28;20030;-78
2022/02/05 06:32:06;;;;;;;50.72;46.03;;;;;;;;;;4999271;28;20003;-81
2022/02/05 06:34:31;;;;;;;53.60;47.90;;;;;;;;;;4998169;28;20023;-79
2022/02/05 06:36:57;;;;;;;49.03;44.77;;;;;;;;;;4995553;28;20043;-79
2022/02/05 06:39:35;;;;;;;49.67;45.00;;;;;;;;;;4993641;28;20088;-78
2022/02/05 06:42:00;;;;;;;51.33;46.15;;;;;;;;;;4997626;28;20037;-79
2022/02/05 06:44:26;;;;;;;51.73;46.53;;;;;;;;;;4993564;28;20445;-80
2022/02/05 06:46:51;;;;;;;49.80;45.43;;;;;;;;;;5006745;28;20018;-80
2022/02/05 06:49:18;;;;;;;50.30;45.90;;;;;;;;;;4997833;28;20090;-80
2022/02/05 06:51:43;;;;;;;50.10;45.42;;;;;;;;;;4994998;28;20022;-78
2022/02/05 06:54:08;;;;;;;49.33;45.00;;;;;;;;;;4997506;28;20082;-80
2022/02/05 06:56:33;;;;;;;53.03;47.90;;;;;;;;;;4997802;28;20025;-80
2022/02/05 06:58:59;;;;;;;52.30;46.87;;;;;;;;;;4997614;28;20015;-79
2022/02/05 07:01:24;;;;;;;51.23;46.13;;;;;;;;;;4995421;28;20022;-79
2022/02/05 07:03:50;;;;;;;50.57;45.93;;;;;;;;;;5006050;28;20488;-80
2022/02/05 07:06:15;;;;;;;50.60;45.85;;;;;;;;;;4988036;28;20054;-78
2022/02/05 07:08:42;;;;;;;49.97;45.60;;;;;;;;;;4981589;28;20023;-79
2022/02/05 07:11:07;;;;;;;51.30;46.00;;;;;;;;;;4986013;28;20045;-80
2022/02/05 07:13:33;;;;;;;50.43;45.93;;;;;;;;;;4984893;28;20035;-79
2022/02/05 07:16:35;;;;;;;50.92;46.38;;;;;;;;;;4985107;28;20011;-81
2022/02/05 07:21:20;;;;;;;50.80;46.23;;;;;;;;;;4982947;28;20061;-80
2022/02/05 07:29:17;;;;;;;50.42;45.80;;;;;;;;;;4961562;28;20045;-80
2022/02/05 07:31:43;;;;;;;49.35;45.20;;;;;;;;;;4984598;28;20153;-80
2022/02/05 07:34:08;;;;;;;49.83;45.60;;;;;;;;;;4985694;28;20065;-78
2022/02/05 07:36:34;;;;;;;52.83;47.80;;;;;;;;;;4990507;28;20054;-79
2022/02/05 07:38:59;;;;;;;51.57;46.43;;;;;;;;;;4991637;28;20061;-79
2022/02/05 07:41:24;;;;;;;50.20;45.87;;;;;;;;;;4991108;28;20015;-79
2022/02/05 07:43:49;;;;;;;52.10;46.97;;;;;;;;;;4987127;28;20019;-80
2022/02/05 07:46:15;;;;;;;50.80;45.80;;;;;;;;;;4989228;28;20023;-78
2022/02/05 07:48:40;;;;;;;49.17;44.83;;;;;;;;;;4994178;28;20030;-80
2022/02/05 07:51:06;;;;;;;49.23;44.87;;;;;;;;;;4994210;28;20430;-81
2022/02/05 07:53:31;;;;;;;50.37;45.87;;;;;;;;;;4994837;28;20014;-80
2022/02/05 07:55:57;;;;;;;52.60;47.23;;;;;;;;;;4990322;28;20049;-80
2022/02/05 07:58:22;;;;;;;50.93;46.13;;;;;;;;;;4990472;28;20780;-80
2022/02/05 08:00:47;;;;;;;51.83;46.37;;;;;;;;;;4979242;28;20018;-81
2022/02/05 08:03:13;;;;;;;52.53;47.17;;;;;;;;;;4976538;28;20026;-80
2022/02/05 08:05:38;;;;;;;51.93;46.60;;;;;;;;;;4975731;28;20080;-79
2022/02/05 08:08:07;;;;;;;51.17;46.53;;;;;;;;;;4977533;28;20038;-79
2022/02/05 08:10:37;;;;;;;52.00;46.85;;;;;;;;;;4974603;28;20272;-80
2022/02/05 08:13:02;;;;;;;54.85;48.90;;;;;;;;;;4987814;28;20030;-80
2022/02/05 08:15:30;;;;;;;52.77;47.87;;;;;;;;;;4982159;28;20034;-80
2022/02/05 08:17:56;;;;;;;52.92;47.67;;;;;;;;;;4984983;28;20022;-81
2022/02/05 08:20:21;;;;;;;52.72;47.80;;;;;;;;;;4980174;28;20050;-81
2022/02/05 08:22:46;;;;;;;56.03;49.90;;;;;;;;;;4979773;28;20079;-80
2022/02/05 08:25:12;;;;;;;54.47;48.43;;;;;;;;;;4978290;28;20414;-82
2022/02/05 08:27:38;;;;;;;56.37;50.13;;;;;;;;;;4992110;28;20026;-80
2022/02/05 08:30:08;;;;;;;;;;;;;;;;;;4980451;28;20023;-82
2022/02/05 08:32:33;;;;;;;57.20;50.92;;;;;;;;;;4994804;28;19933;-80
2022/02/05 08:35:00;;;;;;;57.20;49.13;;;;;;;;;;4973836;28;20022;-81
2022/02/05 08:37:25;;;;;;;;;;;;;;;;;;4979310;28;20635;-80
2022/02/05 08:39:53;;;;;;;54.42;49.15;;;;;;;;;;4990390;28;19996;-81
2022/02/05 08:42:19;;;;;;;54.92;49.60;;;;;;;;;;4977722;28;20027;-81
2022/02/05 08:44:44;;;;;;;61.30;51.73;;;;;;;;;;4979126;28;20122;-79
2022/02/05 08:47:09;;;;;;;59.70;50.87;;;;;;;;;;4987820;28;20467;-81
2022/02/05 08:49:34;;;;;;;55.47;49.63;;;;;;;;;;4983276;28;20023;-86
2022/02/05 08:52:02;;;;;;;64.50;50.97;;;;;;;;;;4990913;28;20015;-88
2022/02/05 08:54:28;;;;;;;61.47;53.22;;;;;;;;;;4992034;28;20034;-85
2022/02/05 08:56:54;;;;;;;53.33;48.20;;;;;;;;;;4991319;28;20050;-85
2022/02/05 08:59:20;;;;;;;55.95;49.33;;;;;;;;;;4984297;28;20811;-84
2022/02/05 09:04:36;;;;;;;62.30;52.15;;;;;;;;;;4979157;28;20102;-84
2022/02/05 09:07:01;;;;;;;55.95;50.05;;;;;;;;;;4974985;28;20030;-79
2022/02/05 09:12:15;;;;;;;79.63;52.67;;;;;;;;;;4969373;28;20468;-78
2022/02/05 09:14:41;;;;;;;62.60;52.05;;;;;;;;;;4969907;28;20117;-76
2022/02/05 09:17:06;;;;;;;65.82;52.67;;;;;;;;;;4971431;28;20145;-75
2022/02/05 09:19:33;;;;;;;55.80;49.83;;;;;;;;;;4976999;28;20477;-77
2022/02/05 09:22:03;;;;;;;60.33;50.55;;;;;;;;;;4972071;28;20027;-76
2022/02/05 09:24:28;;;;;;;66.43;52.22;;;;;;;;;;4971143;28;20039;-77
2022/02/05 09:27:00;;;;;;;75.03;51.67;;;;;;;;;;4970808;28;20360;-78
2022/02/05 09:29:26;;;;;;;56.55;50.53;;;;;;;;;;4976156;28;20031;-77
2022/02/05 09:31:52;;;;;;;55.60;49.60;;;;;;;;;;4974674;28;20019;-75
2022/02/05 09:34:18;;;;;;;61.83;50.47;;;;;;;;;;4973730;28;20045;-77
2022/02/05 09:36:43;;;;;;;54.55;48.88;;;;;;;;;;4973142;28;20141;-84
2022/02/05 09:39:09;;;;;;;55.37;49.47;;;;;;;;;;4981055;28;20389;-85
2022/02/05 09:41:35;;;;;;;53.35;47.88;;;;;;;;;;4983756;28;20038;-84
2022/02/05 09:44:01;;;;;;;57.83;49.65;;;;;;;;;;4984622;28;20114;-83
2022/02/05 09:46:27;;;;;;;59.88;50.42;;;;;;;;;;4977318;28;20093;-81
2022/02/05 09:48:53;;;;;;;57.95;50.50;;;;;;;;;;4978357;28;20023;-80
2022/02/05 09:51:19;;;;;;;58.87;49.53;;;;;;;;;;4976091;28;20049;-82
2022/02/05 09:56:12;;;;;;;59.30;49.10;;;;;;;;;;4974539;28;20418;-82
2022/02/05 09:58:37;;;;;;;53.43;47.93;;;;;;;;;;4981277;28;20018;-82
2022/02/05 10:01:22;;;;;;;68.97;52.63;;;;;;;;;;4978221;28;20023;-84
2022/02/05 10:03:49;;;;;;;56.58;50.30;;;;;;;;;;4979296;28;20031;-84
2022/02/05 10:06:14;;;;;;;53.60;48.25;;;;;;;;;;4977473;28;20077;-83
2022/02/05 10:08:47;;;;;;;53.50;48.00;;;;;;;;;;4989314;28;20022;-84
2022/02/05 10:11:12;;;;;;;54.72;49.20;;;;;;;;;;4996581;28;20287;-84
2022/02/05 10:13:38;;;;;;;57.53;48.37;;;;;;;;;;4980544;28;20022;-86
2022/02/05 10:16:04;;;;;;;55.07;49.27;;;;;;;;;;4976656;28;20033;-83
2022/02/05 10:18:33;;;;;;;54.83;49.05;;;;;;;;;;4982602;28;20027;-83
2022/02/05 10:21:00;;;;;;;81.07;55.75;;;;;;;;;;4981415;28;20023;-83
2022/02/05 10:23:25;;;;;;;;;;;;;;;;;;4980687;28;20054;-83
2022/02/05 10:25:50;;;;;;;53.93;48.50;;;;;;;;;;4982549;28;19909;-82
2022/02/05 10:28:16;;;;;;;54.45;48.63;;;;;;;;;;4981787;28;20277;-84
2022/02/05 10:30:44;;;;;;;54.13;48.63;;;;;;;;;;4983554;28;20117;-85
2022/02/05 10:35:58;;;;;;;54.97;49.40;;;;;;;;;;4981516;28;20018;-83
2022/02/05 10:43:00;;;;;;;54.85;48.90;;;;;;;;;;4984913;28;20142;-84
2022/02/05 10:43:58;;;;;;;53.95;48.38;;;;;;;;;;4985612;28;20023;-84
2022/02/05 10:46:42;;;;;;;55.20;49.42;;;;;;;;;;4973995;28;20453;-84
2022/02/05 10:49:11;;;;;;;54.67;48.97;;;;;;;;;;4979999;28;20027;-83
2022/02/05 10:51:45;;;;;;;55.90;49.95;;;;;;;;;;4980371;28;20023;-87
2022/02/05 10:54:20;;;;;;;60.15;50.75;;;;;;;;;;4983444;28;20027;-84
2022/02/05 10:56:59;;;;;;;54.55;48.22;;;;;;;;;;4983231;28;20040;-85
2022/02/05 10:59:48;;;;;;;55.35;49.38;;;;;;;;;;4999540;28;20034;-84
2022/02/05 11:05:15;;;;;;;56.65;50.50;;;;;;;;;;4995242;28;20050;-85
2022/02/05 11:07:41;;;;;;;54.10;48.60;;;;;;;;;;5002032;28;20037;-89
2022/02/05 11:10:06;;;;;;;55.20;49.63;;;;;;;;;;4995446;28;20027;-89
2022/02/05 11:15:56;;;;;;;69.38;51.35;;;;;;;;;;4985837;28;20081;-85
2022/02/05 11:18:30;;;;;;;61.17;51.45;;;;;;;;;;4999318;28;20058;-84
2022/02/05 11:20:57;;;;;;;54.60;48.78;;;;;;;;;;4996068;28;20054;-85
2022/02/05 11:23:36;;;;;;;55.38;49.55;;;;;;;;;;4994823;28;20043;-84
2022/02/05 11:26:02;;;;;;;58.90;50.00;;;;;;;;;;4996332;28;20015;-87
2022/02/05 11:28:40;;;;;;;55.97;50.13;;;;;;;;;;4998387;28;20054;-84
2022/02/05 11:31:17;;;;;;;66.28;51.90;;;;;;;;;;4994452;28;20641;-78
2022/02/05 11:33:43;;;;;;;55.73;49.70;;;;;;;;;;4995652;28;20022;-80
2022/02/05 11:36:54;;;;;;;66.82;53.30;;;;;;;;;;4988809;28;20018;-80
2022/02/05 11:39:00;;;;;;;63.97;50.20;;;;;;;;;;4987784;28;20054;-80
2022/02/05 11:41:36;;;;;;;55.95;50.08;;;;;;;;;;4986034;28;20352;-81
2022/02/05 11:44:16;;;;;;;54.38;48.67;;;;;;;;;;4987785;28;20018;-82
2022/02/05 11:47:00;;;;;;;68.47;50.13;;;;;;;;;;4980263;28;20050;-81
2022/02/05 11:49:27;;;;;;;58.85;51.42;;;;;;;;;;4982235;28;20031;-81
2022/02/05 11:51:52;;;;;;;59.58;50.80;;;;;;;;;;4983700;28;20019;-81
2022/02/05 11:54:17;;;;;;;54.63;49.03;;;;;;;;;;4982055;28;20046;-82
2022/02/05 11:59:25;;;;;;;58.63;49.85;;;;;;;;;;4981682;28;20022;-82
2022/02/05 12:01:51;;;;;;;55.03;49.20;;;;;;;;;;4980219;28;20050;-82
2022/02/05 12:04:22;;;;;;;56.87;50.07;;;;;;;;;;4980740;28;20018;-82
2022/02/05 12:06:50;;;;;;;56.85;50.80;;;;;;;;;;4974008;28;20027;-81
2022/02/05 12:09:35;;;;;;;57.72;50.10;;;;;;;;;;4985535;28;20079;-81
2022/02/05 12:12:39;;;;;;;57.83;51.50;;;;;;;;;;4983231;28;20038;-81
2022/02/05 12:15:17;;;;;;;62.80;51.42;;;;;;;;;;4977206;28;20417;-80
2022/02/05 12:20:58;;;;;;;55.45;49.63;;;;;;;;;;4984603;28;20026;-81
2022/02/05 12:26:30;;;;;;;56.17;48.80;;;;;;;;;;4980884;28;20031;-82
2022/02/05 12:28:59;;;;;;;60.20;50.47;;;;;;;;;;4980698;28;20057;-80
2022/02/05 12:31:25;;;;;;;56.97;50.20;;;;;;;;;;4979644;28;20018;-82
2022/02/05 12:33:51;;;;;;;56.25;50.10;;;;;;;;;;4979859;28;20109;-81
2022/02/05 12:36:28;;;;;;;54.87;48.67;;;;;;;;;;4977509;28;20385;-82
2022/02/05 12:38:55;;;;;;;101.45;51.85;;;;;;;;;;4988168;28;20042;-80
2022/02/05 12:41:22;;;;;;;;;;;;;;;;;;4983285;28;20121;-82
2022/02/05 12:43:54;;;;;;;54.60;48.75;;;;;;;;;;4986078;28;19917;-82
2022/02/05 12:46:21;;;;;;;53.60;48.30;;;;;;;;;;4983957;28;20107;-83
2022/02/05 12:48:51;;;;;;;55.80;49.80;;;;;;;;;;4991500;28;20022;-82
2022/02/05 12:51:16;;;;;;;54.78;49.15;;;;;;;;;;4991058;28;20034;-81
2022/02/05 12:53:43;;;;;;;55.43;49.63;;;;;;;;;;4990371;28;20019;-82
2022/02/05 12:56:13;;;;;;;58.75;49.72;;;;;;;;;;4981048;28;20139;-82
2022/02/05 12:58:52;;;;;;;55.75;49.75;;;;;;;;;;4985898;28;20126;-83
2022/02/05 13:01:17;;;;;;;55.10;49.40;;;;;;;;;;4980705;28;20031;-80
2022/02/05 13:03:42;;;;;;;54.67;49.20;;;;;;;;;;4985253;28;20023;-82
2022/02/05 13:06:17;;;;;;;55.87;49.93;;;;;;;;;;4981452;28;20040;-81
2022/02/05 13:08:43;;;;;;;55.08;49.42;;;;;;;;;;4984808;28;20018;-80
2022/02/05 13:11:09;;;;;;;54.25;48.83;;;;;;;;;;4994001;28;20015;-80
2022/02/05 13:13:36;;;;;;;54.73;48.77;;;;;;;;;;4997553;28;20031;-80
2022/02/05 13:16:02;;;;;;;55.28;49.47;;;;;;;;;;4995472;28;20042;-80
2022/02/05 13:18:41;;;;;;;57.23;51.17;;;;;;;;;;5002038;28;20077;-78
2022/02/05 13:26:56;;;;;;;56.03;50.17;;;;;;;;;;4993903;28;20065;-79
2022/02/05 13:29:57;;;;;;;56.05;49.92;;;;;;;;;;4987022;28;20509;-77
2022/02/05 13:35:04;;;;;;;59.13;51.88;;;;;;;;;;4977382;28;20082;-81
2022/02/05 13:37:36;;;;;;;54.80;49.63;;;;;;;;;;4996184;28;20031;-79
2022/02/05 13:40:02;;;;;;;56.05;50.08;;;;;;;;;;4987824;28;20023;-77
2022/02/05 13:42:32;;;;;;;54.92;49.45;;;;;;;;;;4978929;28;20395;-79
2022/02/05 13:45:10;;;;;;;60.63;51.90;;;;;;;;;;4976293;28;20027;-78
2022/02/05 13:47:36;;;;;;;55.97;50.35;;;;;;;;;;4980330;28;20125;-80
2022/02/05 13:50:02;;;;;;;56.13;50.35;;;;;;;;;;4985267;28;20038;-80
2022/02/05 13:52:48;;;;;;;56.50;50.23;;;;;;;;;;4981609;28;20026;-78
2022/02/05 13:55:23;;;;;;;62.25;50.40;;;;;;;;;;4977170;28;20022;-78
2022/02/05 13:57:56;;;;;;;59.85;50.50;;;;;;;;;;4972625;28;20090;-79
2022/02/05 14:00:22;;;;;;;59.13;50.72;;;;;;;;;;4978066;28;20046;-78
2022/02/05 14:02:55;;;;;;;59.43;50.33;;;;;;;;;;4978878;28;20031;-80
2022/02/05 14:05:21;;;;;;;55.05;49.30;;;;;;;;;;4976064;28;20463;-80
2022/02/05 14:07:47;;;;;;;56.07;49.83;;;;;;;;;;4977373;28;20520;-78
2022/02/05 14:10:13;;;;;;;54.70;49.28;;;;;;;;;;4977965;28;20019;-79
2022/02/05 14:12:54;;;;;;;60.85;51.47;;;;;;;;;;4978474;28;20027;-79
2022/02/05 14:15:21;;;;;;;58.75;51.90;;;;;;;;;;4977595;28;20081;-79
2022/02/05 14:17:46;;;;;;;54.55;49.20;;;;;;;;;;4980854;28;20027;-78
2022/02/05 14:20:13;;;;;;;56.45;49.70;;;;;;;;;;4982789;28;20515;-77
2022/02/05 14:22:40;;;;;;;60.92;52.47;;;;;;;;;;4981504;28;20376;-80
2022/02/05 14:25:12;;;;;;;56.58;50.65;;;;;;;;;;4977715;28;20050;-79
2022/02/05 14:27:41;;;;;;;53.63;48.28;;;;;;;;;;4975825;28;20026;-78
2022/02/05 14:30:13;;;;;;;56.70;50.17;;;;;;;;;;4975827;28;20105;-78
2022/02/05 14:32:51;;;;;;;60.25;51.42;;;;;;;;;;4976463;28;20146;-79
2022/02/05 14:40:45;;;;;;;57.42;51.58;;;;;;;;;;4979660;28;20033;-80
2022/02/05 14:43:11;;;;;;;56.38;50.40;;;;;;;;;;4978430;28;20023;-78
2022/02/05 14:45:36;;;;;;;57.55;51.05;;;;;;;;;;4975526;28;20023;-78
2022/02/05 14:48:02;;;;;;;55.60;49.73;;;;;;;;;;4977877;28;20029;-79
2022/02/05 14:50:27;;;;;;;60.50;51.10;;;;;;;;;;4977135;28;20037;-79
2022/02/05 14:52:52;;;;;;;63.23;51.37;;;;;;;;;;4977982;28;20030;-79
2022/02/05 14:55:19;;;;;;;59.03;50.20;;;;;;;;;;4974695;28;20026;-79
2022/02/05 14:57:44;;;;;;;;;;;;;;;;;;4982448;28;20044;-79
2022/02/05 15:00:09;;;;;;;55.63;50.13;;;;;;;;;;4979081;28;19996;-78
2022/02/05 15:02:34;;;;;;;57.47;51.40;;;;;;;;;;4977284;28;20336;-81
2022/02/05 15:05:08;;;;;;;56.43;50.23;;;;;;;;;;4975671;28;20709;-79
2022/02/05 15:07:33;;;;;;;58.03;50.03;;;;;;;;;;4984194;28;20030;-79
2022/02/05 15:09:59;;;;;;;57.90;50.43;;;;;;;;;;4980146;28;20030;-77
2022/02/05 15:12:24;;;;;;;56.80;50.65;;;;;;;;;;4979551;28;20142;-78
2022/02/05 15:14:49;;;;;;;62.10;51.63;;;;;;;;;;4990378;28;20035;-77
2022/02/05 15:17:14;;;;;;;54.90;49.27;;;;;;;;;;4996064;28;20080;-77
2022/02/05 15:19:40;;;;;;;56.20;50.17;;;;;;;;;;4996904;28;20015;-77
2022/02/05 15:22:05;;;;;;;55.43;49.47;;;;;;;;;;4996911;28;20056;-77
2022/02/05 15:24:30;;;;;;;63.87;52.23;;;;;;;;;;4996044;28;20019;-77
2022/02/05 15:26:55;;;;;;;55.20;49.30;;;;;;;;;;4993876;28;20035;-77
2022/02/05 15:29:20;;;;;;;56.88;49.65;;;;;;;;;;4996956;28;20007;-78
2022/02/05 15:31:48;;;;;;;55.60;49.67;;;;;;;;;;4997618;28;20023;-76
2022/02/05 15:34:14;;;;;;;57.42;50.95;;;;;;;;;;4996341;28;20011;-76
2022/02/05 15:44:43;;;;;;;62.05;53.47;;;;;;;;;;4993254;28;20049;-76
2022/02/05 15:47:08;;;;;;;52.93;48.03;;;;;;;;;;5002419;28;20022;-79
2022/02/05 15:49:33;;;;;;;54.73;49.23;;;;;;;;;;5000965;28;20008;-79
2022/02/05 15:51:59;;;;;;;53.93;48.10;;;;;;;;;;4976917;28;20023;-78
2022/02/05 15:54:27;;;;;;;60.20;51.43;;;;;;;;;;4976544;28;20026;-79
2022/02/05 15:57:03;;;;;;;55.13;49.58;;;;;;;;;;4986011;23;20051;-82
2022/02/05 15:59:51;;;;;;;53.15;48.15;;;;;;;;;;4987226;28;20027;-81
2022/02/05 16:02:14;;;;;;;53.85;48.33;;;;;;;;;;4971769;28;20027;-82
2022/02/05 16:04:39;;;;;;;53.67;48.47;;;;;;;;;;4971167;28;20050;-81
2022/02/05 16:07:05;;;;;;;54.93;49.10;;;;;;;;;;4967160;29;20082;-79
2022/02/05 16:09:31;;;;;;;55.40;49.97;;;;;;;;;;4969388;28;21464;-82
2022/02/05 16:11:59;;;;;;;53.67;48.58;;;;;;;;;;4986446;28;20078;-82
2022/02/05 16:14:24;;;;;;;52.97;48.13;;;;;;;;;;4971750;28;20051;-82
2022/02/05 16:16:50;;;;;;;54.33;48.77;;;;;;;;;;4966967;29;20022;-82
2022/02/05 16:19:15;;;;;;;52.10;47.40;;;;;;;;;;4969059;28;20038;-83
2022/02/05 16:21:40;;;;;;;54.13;49.00;;;;;;;;;;4986489;28;20737;-82
2022/02/05 16:24:05;;;;;;;54.87;49.13;;;;;;;;;;4971780;28;20078;-81
2022/02/05 16:26:31;;;;;;;53.20;48.27;;;;;;;;;;4983103;28;20038;-82
2022/02/05 16:28:56;;;;;;;55.83;49.83;;;;;;;;;;4967857;29;20017;-81
2022/02/05 16:31:21;;;;;;;53.40;48.20;;;;;;;;;;4980883;28;20050;-81
2022/02/05 16:33:47;;;;;;;54.33;49.13;;;;;;;;;;4963912;29;20491;-83
2022/02/05 16:36:18;;;;;;;55.90;49.30;;;;;;;;;;4962165;29;20031;-82
2022/02/05 16:38:46;;;;;;;61.35;51.15;;;;;;;;;;4980096;28;20054;-81
2022/02/05 16:41:11;;;;;;;53.97;48.70;;;;;;;;;;4966210;28;20206;-83
2022/02/05 16:43:40;;;;;;;52.63;47.73;;;;;;;;;;4964282;28;20027;-83
2022/02/05 16:46:08;;;;;;;54.00;48.47;;;;;;;;;;4963854;28;20038;-83
2022/02/05 16:48:34;;;;;;;53.08;47.97;;;;;;;;;;4964063;29;20031;-81
2022/02/05 16:51:00;;;;;;;55.10;49.47;;;;;;;;;;4964149;29;20074;-82
2022/02/05 16:53:25;;;;;;;54.88;49.38;;;;;;;;;;4965379;29;20022;-83
2022/02/05 16:55:50;;;;;;;54.60;49.30;;;;;;;;;;4963939;28;20488;-83
2022/02/05 16:58:16;;;;;;;54.20;48.57;;;;;;;;;;4965952;28;20015;-81
2022/02/05 17:00:41;;;;;;;55.53;49.77;;;;;;;;;;4981848;28;20023;-82
2022/02/05 17:03:06;;;;;;;54.33;48.90;;;;;;;;;;4967283;29;20073;-83
2022/02/05 17:05:37;;;;;;;56.53;50.53;;;;;;;;;;4965706;28;20023;-83
2022/02/05 17:08:02;;;;;;;54.08;48.50;;;;;;;;;;4978175;28;20035;-82
2022/02/05 17:10:29;;;;;;;53.60;48.47;;;;;;;;;;4964723;29;20070;-82
2022/02/05 17:12:55;;;;;;;53.38;48.08;;;;;;;;;;4964097;28;20019;-83